Time;durP1;ratioP1;P1;durP2;ratioP2;P2;SDS_P1;SDS_P2;PMS_P1;PMS_P2;Temp;Humidity;BMP_temperature;BMP_pressure;BME280_temperature;BME280_humidity;BME280_pressure;Samples;Min_cycle;Max_cycle;Signal;HPM_P1;HPM_P2
2022/08/03 00:02:13;;;;;;;0.75;0.75;;;22.00;99.90;;;;;;5047104;28;20311;-62
2022/08/03 00:04:40;;;;;;;0.80;0.80;;;21.90;99.90;;;;;;5048092;28;20295;-62
2022/08/03 00:07:07;;;;;;;0.80;0.80;;;21.90;99.90;;;;;;5050625;28;20343;-62
2022/08/03 00:09:33;;;;;;;0.80;0.80;;;21.80;99.90;;;;;;5049576;28;20227;-62
2022/08/03 00:12:02;;;;;;;1.00;1.00;;;21.80;99.90;;;;;;5048529;28;20240;-61
2022/08/03 00:14:29;;;;;;;0.73;0.73;;;21.80;99.90;;;;;;5049647;28;20315;-63
2022/08/03 00:16:56;;;;;;;0.70;0.70;;;21.80;99.90;;;;;;5047012;28;20304;-62
2022/08/03 00:19:23;;;;;;;2.45;0.93;;;21.80;99.90;;;;;;5047659;28;20200;-62
2022/08/03 00:21:50;;;;;;;0.80;0.80;;;21.80;99.90;;;;;;5046005;28;20303;-62
2022/08/03 00:24:17;;;;;;;0.80;0.80;;;21.80;99.90;;;;;;5049214;28;20232;-63
2022/08/03 00:26:44;;;;;;;0.88;0.88;;;21.70;99.90;;;;;;5047818;28;20210;-62
2022/08/03 00:29:13;;;;;;;0.80;0.80;;;21.80;99.90;;;;;;5047846;28;20216;-62
2022/08/03 00:31:40;;;;;;;1.08;0.75;;;21.70;99.90;;;;;;5048711;28;20720;-62
2022/08/03 00:34:06;;;;;;;0.70;0.70;;;21.70;99.90;;;;;;5049782;28;20208;-62
2022/08/03 00:36:33;;;;;;;0.80;0.80;;;21.70;99.90;;;;;;5048371;28;20859;-61
2022/08/03 00:39:00;;;;;;;0.77;0.77;;;21.70;99.90;;;;;;5048175;28;20298;-62
2022/08/03 00:41:27;;;;;;;1.00;1.00;;;21.70;99.90;;;;;;5049871;28;20323;-62
2022/08/03 00:43:54;;;;;;;0.82;0.82;;;21.70;99.90;;;;;;5047246;28;20942;-62
2022/08/03 00:46:22;;;;;;;0.90;0.90;;;21.80;99.90;;;;;;5047601;28;20288;-62
2022/08/03 00:48:50;;;;;;;0.80;0.80;;;21.70;99.90;;;;;;5048997;28;20214;-62
2022/08/03 00:51:17;;;;;;;0.77;0.77;;;21.70;99.90;;;;;;5048979;28;20230;-61
2022/08/03 00:53:45;;;;;;;1.45;0.90;;;21.70;99.90;;;;;;5040586;28;20299;-61
2022/08/03 00:56:14;;;;;;;0.73;0.73;;;21.70;99.90;;;;;;5045305;28;20207;-61
2022/08/03 00:58:41;;;;;;;0.85;0.85;;;21.70;99.90;;;;;;5047561;28;20200;-61
2022/08/03 01:01:08;;;;;;;0.80;0.80;;;21.70;99.90;;;;;;5049977;28;20223;-62
2022/08/03 01:03:36;;;;;;;0.90;0.90;;;21.60;99.90;;;;;;5048595;28;20278;-62
2022/08/03 01:06:12;;;;;;;0.90;0.90;;;21.60;99.90;;;;;;5051437;28;20222;-62
2022/08/03 01:08:46;;;;;;;0.80;0.80;;;21.60;99.90;;;;;;5046730;28;20199;-62
2022/08/03 01:11:22;;;;;;;0.80;0.80;;;21.60;99.90;;;;;;5047358;28;20252;-60
2022/08/03 01:13:57;;;;;;;0.90;0.90;;;21.60;99.90;;;;;;5046204;28;20219;-62
2022/08/03 01:16:30;;;;;;;0.80;0.80;;;21.60;99.90;;;;;;5046920;28;20196;-62
2022/08/03 01:19:12;;;;;;;1.27;1.02;;;21.50;99.90;;;;;;5048414;28;20581;-62
2022/08/03 01:21:55;;;;;;;0.95;0.95;;;21.40;99.90;;;;;;5041689;28;20736;-62
2022/08/03 01:24:35;;;;;;;1.00;1.00;;;21.40;99.90;;;;;;5038354;28;20218;-62
2022/08/03 01:27:09;;;;;;;0.80;0.80;;;21.40;99.90;;;;;;5048962;28;20216;-62
2022/08/03 01:29:51;;;;;;;0.83;0.83;;;21.40;99.90;;;;;;5051857;28;20206;-63
2022/08/03 01:32:25;;;;;;;0.90;0.90;;;21.30;99.90;;;;;;5052606;28;20285;-62
2022/08/03 01:34:58;;;;;;;0.80;0.80;;;21.30;99.90;;;;;;5050743;28;20294;-62
2022/08/03 01:37:31;;;;;;;0.88;0.88;;;21.30;99.90;;;;;;5051026;28;20219;-62
2022/08/03 01:40:02;;;;;;;0.90;0.90;;;21.30;99.90;;;;;;5048006;28;20228;-61
2022/08/03 01:42:30;;;;;;;0.80;0.80;;;21.20;99.90;;;;;;5050318;28;20235;-60
2022/08/03 01:45:00;;;;;;;0.80;0.80;;;21.10;99.90;;;;;;5048062;28;20214;-62
2022/08/03 01:47:29;;;;;;;0.95;0.95;;;21.10;99.90;;;;;;5071688;22;20339;-68
2022/08/03 01:49:57;;;;;;;1.00;1.00;;;21.00;99.90;;;;;;5026442;28;20950;-68
2022/08/03 01:52:25;;;;;;;0.80;0.80;;;20.90;99.90;;;;;;5034231;28;20763;-68
2022/08/03 01:54:54;;;;;;;0.90;0.90;;;20.90;99.90;;;;;;5037191;28;21118;-67
2022/08/03 01:57:23;;;;;;;0.70;0.70;;;20.90;99.90;;;;;;5042653;28;20204;-68
2022/08/03 01:59:52;;;;;;;0.85;0.85;;;20.90;99.90;;;;;;5039526;28;20987;-68
2022/08/03 02:02:21;;;;;;;0.88;0.88;;;20.90;99.90;;;;;;5037517;28;20204;-68
2022/08/03 02:04:50;;;;;;;0.77;0.77;;;20.80;99.90;;;;;;5040921;28;20199;-69
2022/08/03 02:07:18;;;;;;;0.90;0.90;;;20.90;99.90;;;;;;5046005;28;20230;-67
2022/08/03 02:09:49;;;;;;;0.90;0.90;;;20.90;99.90;;;;;;5040000;28;20703;-68
2022/08/03 02:12:18;;;;;;;1.00;1.00;;;20.70;99.90;;;;;;5051033;28;20622;-66
2022/08/03 02:14:48;;;;;;;0.88;0.88;;;20.70;99.90;;;;;;5040658;28;20617;-68
2022/08/03 02:17:16;;;;;;;0.77;0.77;;;20.70;99.90;;;;;;5033961;28;20214;-69
2022/08/03 02:19:45;;;;;;;0.80;0.80;;;20.70;99.90;;;;;;5039992;28;20210;-68
2022/08/03 02:22:13;;;;;;;1.00;1.00;;;20.70;99.90;;;;;;5038276;28;20300;-68
2022/08/03 02:24:41;;;;;;;0.68;0.68;;;20.70;99.90;;;;;;5056367;28;20207;-66
2022/08/03 02:27:14;;;;;;;0.80;0.80;;;20.80;99.90;;;;;;5028289;28;20207;-68
2022/08/03 02:29:42;;;;;;;0.82;0.82;;;20.80;99.90;;;;;;5028084;28;20234;-68
2022/08/03 02:32:12;;;;;;;0.75;0.75;;;20.80;99.90;;;;;;5024663;28;20215;-67
2022/08/03 02:34:41;;;;;;;0.82;0.82;;;20.80;99.90;;;;;;5037417;28;21739;-68
2022/08/03 02:37:11;;;;;;;0.80;0.80;;;20.80;99.90;;;;;;5048252;28;20200;-67
2022/08/03 02:39:40;;;;;;;0.70;0.70;;;20.80;99.90;;;;;;5050657;28;20283;-68
2022/08/03 02:42:09;;;;;;;0.90;0.90;;;20.80;99.90;;;;;;5052173;28;20216;-69
2022/08/03 02:44:39;;;;;;;0.80;0.80;;;20.80;99.90;;;;;;5050098;28;20208;-69
2022/08/03 02:47:10;;;;;;;0.82;0.82;;;20.80;99.90;;;;;;5050516;28;21543;-68
2022/08/03 02:49:39;;;;;;;0.80;0.80;;;20.70;99.90;;;;;;5049739;28;20196;-67
2022/08/03 02:52:12;;;;;;;0.90;0.90;;;20.70;99.90;;;;;;5049761;28;20299;-68
2022/08/03 02:54:39;;;;;;;0.88;0.88;;;20.70;99.90;;;;;;5045876;28;20239;-68
2022/08/03 02:57:08;;;;;;;0.90;0.90;;;20.60;99.90;;;;;;5050557;28;20235;-68
2022/08/03 02:59:37;;;;;;;1.40;1.30;;;20.60;99.90;;;;;;5052730;28;20236;-69
2022/08/03 03:02:04;;;;;;;0.95;0.95;;;20.60;99.90;;;;;;5050152;28;20208;-69
2022/08/03 03:04:31;;;;;;;0.90;0.90;;;20.60;99.90;;;;;;5050121;28;20309;-69
2022/08/03 03:06:59;;;;;;;1.00;1.00;;;20.60;99.90;;;;;;5051993;28;20234;-68
2022/08/03 03:09:28;;;;;;;1.08;1.08;;;20.60;99.90;;;;;;5052378;28;20232;-68
2022/08/03 03:11:57;;;;;;;0.80;0.80;;;20.60;99.90;;;;;;5053096;28;20754;-69
2022/08/03 03:14:24;;;;;;;1.10;1.10;;;20.50;99.90;;;;;;5050939;28;20226;-69
2022/08/03 03:16:52;;;;;;;0.90;0.90;;;20.40;99.90;;;;;;5053959;28;20243;-71
2022/08/03 03:19:20;;;;;;;0.90;0.90;;;20.40;99.90;;;;;;5051125;28;20315;-68
2022/08/03 03:21:47;;;;;;;0.90;0.90;;;20.50;99.90;;;;;;5049202;28;20199;-69
2022/08/03 03:24:16;;;;;;;0.95;0.90;;;20.50;99.90;;;;;;5049040;28;20393;-67
2022/08/03 03:26:44;;;;;;;0.70;0.70;;;20.50;99.90;;;;;;5043236;28;20203;-68
2022/08/03 03:29:11;;;;;;;1.00;1.00;;;20.50;99.90;;;;;;5054260;28;20310;-69
2022/08/03 03:31:39;;;;;;;0.90;0.90;;;20.50;99.90;;;;;;5051624;28;20287;-68
2022/08/03 03:34:06;;;;;;;0.80;0.80;;;20.50;99.90;;;;;;5051070;28;20285;-70
2022/08/03 03:36:33;;;;;;;1.00;1.00;;;20.50;99.90;;;;;;5051965;28;20211;-68
2022/08/03 03:39:00;;;;;;;0.80;0.80;;;20.60;99.90;;;;;;5050622;28;20985;-68
2022/08/03 03:41:27;;;;;;;0.77;0.77;;;20.50;99.90;;;;;;5051783;28;20206;-69
2022/08/03 03:43:56;;;;;;;0.90;0.90;;;20.50;99.90;;;;;;5051335;28;20631;-70
2022/08/03 03:46:23;;;;;;;1.00;1.00;;;20.50;99.90;;;;;;5048017;28;20299;-68
2022/08/03 03:48:49;;;;;;;0.90;0.90;;;20.50;99.90;;;;;;5051211;28;20232;-68
2022/08/03 03:51:17;;;;;;;0.85;0.85;;;20.50;99.90;;;;;;5048231;28;21468;-66
2022/08/03 03:53:55;;;;;;;1.00;1.00;;;20.40;99.90;;;;;;5047401;28;20212;-68
2022/08/03 03:56:22;;;;;;;1.00;1.00;;;20.30;99.90;;;;;;5053483;28;20246;-68
2022/08/03 03:58:49;;;;;;;0.93;0.93;;;20.30;99.90;;;;;;5050394;28;20322;-70
2022/08/03 04:01:18;;;;;;;0.80;0.80;;;20.20;99.90;;;;;;5049628;28;20211;-69
2022/08/03 04:03:45;;;;;;;0.80;0.80;;;20.10;99.90;;;;;;5055132;28;20299;-71
2022/08/03 04:11:47;;;;;;;0.90;0.90;;;20.10;99.90;;;;;;5001533;28;20427;-69
2022/08/03 04:14:18;;;;;;;0.90;0.90;;;20.20;99.90;;;;;;5055753;28;20212;-68
2022/08/03 04:16:49;;;;;;;0.90;0.88;;;20.20;99.90;;;;;;5060813;28;20276;-70
2022/08/03 04:19:22;;;;;;;1.00;1.00;;;20.20;99.90;;;;;;5060766;28;20251;-68
2022/08/03 04:21:54;;;;;;;1.25;1.20;;;20.40;99.90;;;;;;5054139;28;20658;-68
2022/08/03 04:24:23;;;;;;;3.40;1.27;;;20.30;99.90;;;;;;5049920;28;20302;-69
2022/08/03 04:26:51;;;;;;;1.00;1.00;;;20.30;99.90;;;;;;5050579;28;20291;-69
2022/08/03 04:29:20;;;;;;;1.00;1.00;;;20.30;99.90;;;;;;5052219;28;20314;-68
2022/08/03 04:31:49;;;;;;;1.03;1.00;;;20.30;99.90;;;;;;5049044;28;20291;-69
2022/08/03 04:34:16;;;;;;;1.00;1.00;;;20.30;99.90;;;;;;5049594;28;20254;-69
2022/08/03 04:36:49;;;;;;;0.98;0.98;;;20.40;99.90;;;;;;5050260;28;20210;-70
2022/08/03 04:39:20;;;;;;;0.75;0.75;;;20.30;99.90;;;;;;5049260;28;20224;-69
2022/08/03 04:41:49;;;;;;;0.93;0.93;;;20.40;99.90;;;;;;5050564;28;20207;-70
2022/08/03 04:44:17;;;;;;;1.10;1.00;;;20.40;99.90;;;;;;5061485;28;20298;-72
2022/08/03 04:46:44;;;;;;;1.00;1.00;;;20.40;99.90;;;;;;5059066;28;20204;-70
2022/08/03 04:49:12;;;;;;;0.77;0.77;;;20.50;99.90;;;;;;5058306;28;20235;-69
2022/08/03 04:51:41;;;;;;;1.00;1.00;;;20.40;99.90;;;;;;5051512;28;20200;-70
2022/08/03 04:54:12;;;;;;;1.30;1.15;;;20.40;99.90;;;;;;5048278;28;20235;-70
2022/08/03 04:56:40;;;;;;;0.88;0.88;;;20.40;99.90;;;;;;5049899;28;20282;-69
2022/08/03 04:59:07;;;;;;;0.90;0.90;;;20.40;99.90;;;;;;5050208;28;20251;-69
2022/08/03 05:01:33;;;;;;;1.00;1.00;;;20.40;99.90;;;;;;5048535;28;20215;-69
2022/08/03 05:04:00;;;;;;;0.80;0.80;;;20.40;99.90;;;;;;5050414;28;20208;-70
2022/08/03 05:06:29;;;;;;;0.88;0.88;;;20.50;99.90;;;;;;5050152;28;20269;-70
2022/08/03 05:08:55;;;;;;;0.93;0.93;;;20.50;99.90;;;;;;5048036;28;20295;-69
2022/08/03 05:11:22;;;;;;;0.85;0.85;;;20.60;99.90;;;;;;5048737;28;20199;-70
2022/08/03 05:13:49;;;;;;;1.23;0.90;;;20.50;99.90;;;;;;5046866;28;20659;-68
2022/08/03 05:16:16;;;;;;;0.88;0.88;;;20.50;99.90;;;;;;5048602;28;20295;-68
2022/08/03 05:18:44;;;;;;;1.30;1.20;;;20.50;99.90;;;;;;5054248;28;20603;-69
2022/08/03 05:21:15;;;;;;;1.00;1.00;;;20.60;99.90;;;;;;5057150;28;20208;-71
2022/08/03 05:23:43;;;;;;;0.90;0.90;;;20.80;99.90;;;;;;5052460;28;20192;-68
2022/08/03 05:26:11;;;;;;;0.90;0.90;;;20.90;99.90;;;;;;5052953;28;20210;-69
2022/08/03 05:28:38;;;;;;;0.88;0.88;;;21.10;99.90;;;;;;5058915;28;20243;-69
2022/08/03 05:31:05;;;;;;;1.05;1.02;;;21.30;99.90;;;;;;5056836;28;20220;-69
2022/08/03 05:33:32;;;;;;;0.70;0.70;;;21.50;99.90;;;;;;5056125;28;20314;-69
2022/08/03 05:35:59;;;;;;;0.90;0.90;;;21.60;99.90;;;;;;5053742;28;20222;-68
2022/08/03 05:38:26;;;;;;;1.10;1.10;;;21.80;99.90;;;;;;5055040;28;20254;-68
2022/08/03 05:40:55;;;;;;;1.00;0.85;;;22.00;99.90;;;;;;5055006;28;20740;-69
2022/08/03 05:43:21;;;;;;;0.95;0.95;;;22.20;99.90;;;;;;5063687;28;20191;-69
2022/08/03 05:45:48;;;;;;;1.83;1.00;;;22.40;99.90;;;;;;5070696;28;20268;-69
2022/08/03 05:48:15;;;;;;;0.90;0.80;;;22.70;99.90;;;;;;5068042;28;20864;-68
2022/08/03 05:50:42;;;;;;;0.90;0.90;;;22.90;99.90;;;;;;5060689;28;20266;-69
2022/08/03 05:53:09;;;;;;;0.90;0.90;;;23.10;99.90;;;;;;5067002;28;20200;-68
2022/08/03 05:55:36;;;;;;;0.90;0.90;;;23.30;99.90;;;;;;5058025;28;20208;-68
2022/08/03 05:58:04;;;;;;;1.33;1.33;;;23.40;99.90;;;;;;5053359;28;20247;-68
2022/08/03 06:00:31;;;;;;;1.15;1.15;;;23.60;99.90;;;;;;5054628;28;20208;-68
2022/08/03 06:02:58;;;;;;;1.00;1.00;;;23.70;99.90;;;;;;5052274;28;20270;-68
2022/08/03 06:05:27;;;;;;;0.80;0.80;;;23.60;99.90;;;;;;5051816;28;20235;-69
2022/08/03 06:07:54;;;;;;;0.80;0.80;;;23.60;99.90;;;;;;5051312;28;20284;-70
2022/08/03 06:10:21;;;;;;;0.82;0.82;;;23.80;99.90;;;;;;5054002;28;20218;-69
2022/08/03 06:12:49;;;;;;;1.00;1.00;;;23.80;99.90;;;;;;5048668;28;20208;-68
2022/08/03 06:15:18;;;;;;;1.10;1.10;;;23.90;99.90;;;;;;5051257;28;20529;-69
2022/08/03 06:17:47;;;;;;;0.98;0.98;;;23.90;99.90;;;;;;5049247;28;20236;-68
2022/08/03 06:20:14;;;;;;;1.00;1.00;;;24.00;99.90;;;;;;5048164;28;20196;-69
2022/08/03 06:22:40;;;;;;;1.00;1.00;;;24.10;99.90;;;;;;5037544;28;20210;-69
2022/08/03 06:25:09;;;;;;;1.08;1.08;;;24.10;99.90;;;;;;5049423;28;20279;-69
2022/08/03 06:27:38;;;;;;;0.90;0.90;;;24.10;99.90;;;;;;5045177;28;20250;-69
2022/08/03 06:30:07;;;;;;;1.00;1.00;;;24.20;99.90;;;;;;5047892;28;20566;-68
2022/08/03 06:32:35;;;;;;;1.30;1.20;;;24.20;99.90;;;;;;5052288;28;20322;-69
2022/08/03 06:35:02;;;;;;;1.13;1.13;;;24.20;99.90;;;;;;5052244;28;20318;-68
2022/08/03 06:37:30;;;;;;;1.23;1.10;;;24.20;99.90;;;;;;5051263;28;20314;-69
2022/08/03 06:39:56;;;;;;;1.10;1.10;;;24.20;99.90;;;;;;5055723;28;20292;-69
2022/08/03 06:42:23;;;;;;;1.20;1.20;;;24.20;99.90;;;;;;5062166;28;20200;-69
2022/08/03 06:44:50;;;;;;;1.20;1.20;;;24.20;99.90;;;;;;5057538;28;20200;-68
2022/08/03 06:47:17;;;;;;;1.00;1.00;;;24.40;99.90;;;;;;5051310;28;20218;-67
2022/08/03 06:49:45;;;;;;;1.38;1.30;;;24.60;99.90;;;;;;5052963;28;20200;-69
2022/08/03 06:52:12;;;;;;;1.60;1.50;;;24.70;99.90;;;;;;5047905;28;20204;-69
2022/08/03 06:54:39;;;;;;;1.33;1.23;;;24.80;99.90;;;;;;5053969;28;20327;-69
2022/08/03 06:57:08;;;;;;;1.48;1.25;;;24.90;99.90;;;;;;5053072;28;20296;-69
2022/08/03 06:59:35;;;;;;;1.58;1.48;;;25.00;99.90;;;;;;5049115;28;20199;-68
2022/08/03 07:02:02;;;;;;;1.40;1.30;;;25.10;99.90;;;;;;5050901;28;20243;-69
2022/08/03 07:04:29;;;;;;;1.40;1.30;;;25.10;99.90;;;;;;5050340;28;20200;-68
2022/08/03 07:06:57;;;;;;;2.00;1.30;;;25.10;99.90;;;;;;5050616;28;20215;-69
2022/08/03 07:09:25;;;;;;;1.30;1.20;;;25.10;99.90;;;;;;5049932;28;20226;-68
2022/08/03 07:11:52;;;;;;;1.50;1.33;;;25.00;99.90;;;;;;5048631;28;20215;-68
2022/08/03 07:14:19;;;;;;;1.30;1.30;;;25.10;99.90;;;;;;5049614;28;20211;-68
2022/08/03 07:16:46;;;;;;;1.30;1.30;;;25.40;99.90;;;;;;5049464;28;20204;-69
2022/08/03 07:19:13;;;;;;;1.40;1.30;;;25.50;99.90;;;;;;5050286;28;20251;-68
2022/08/03 07:21:39;;;;;;;1.38;1.27;;;25.50;99.90;;;;;;5049501;28;20676;-68
2022/08/03 07:24:08;;;;;;;1.40;1.30;;;25.60;99.90;;;;;;5048101;28;20291;-68
2022/08/03 07:26:35;;;;;;;1.40;1.30;;;25.80;99.90;;;;;;5049693;28;20200;-69
2022/08/03 07:29:02;;;;;;;1.90;1.40;;;26.00;99.90;;;;;;5049593;28;20675;-69
2022/08/03 07:31:29;;;;;;;3.70;1.48;;;26.00;99.90;;;;;;5048172;28;20334;-68
2022/08/03 07:33:56;;;;;;;1.45;1.35;;;25.80;99.90;;;;;;5048554;28;20212;-69
2022/08/03 07:36:23;;;;;;;1.38;1.35;;;25.80;99.90;;;;;;5049724;28;20230;-69
2022/08/03 07:38:50;;;;;;;1.25;1.15;;;25.90;99.90;;;;;;5051155;28;20239;-68
2022/08/03 07:41:18;;;;;;;1.50;1.40;;;26.00;99.90;;;;;;5048482;28;20219;-67
2022/08/03 07:43:45;;;;;;;1.35;1.27;;;26.10;99.90;;;;;;5052295;28;20200;-68
2022/08/03 07:46:13;;;;;;;1.83;1.20;;;26.30;99.90;;;;;;5052482;28;20290;-69
2022/08/03 07:48:40;;;;;;;1.55;1.10;;;26.50;99.90;;;;;;5048700;28;20231;-69
2022/08/03 07:51:07;;;;;;;1.15;1.05;;;26.70;99.90;;;;;;5049339;28;20239;-67
2022/08/03 07:53:34;;;;;;;1.30;1.20;;;26.80;99.90;;;;;;5051760;28;20226;-68
2022/08/03 07:56:01;;;;;;;1.20;1.20;;;26.80;99.90;;;;;;5050608;28;20243;-69
2022/08/03 07:58:29;;;;;;;1.25;1.25;;;26.80;99.90;;;;;;5050519;28;20262;-67
2022/08/03 08:00:56;;;;;;;1.63;1.00;;;26.80;99.90;;;;;;5050311;28;20208;-68
2022/08/03 08:03:25;;;;;;;1.00;1.00;;;26.90;99.90;;;;;;5051633;28;20893;-70
2022/08/03 08:05:53;;;;;;;1.30;1.17;;;26.90;99.90;;;;;;5049058;28;20258;-69
2022/08/03 08:08:20;;;;;;;1.10;1.10;;;27.00;99.90;;;;;;5050956;28;20716;-69
2022/08/03 08:10:47;;;;;;;1.02;1.02;;;27.00;99.90;;;;;;5050303;28;20207;-68
2022/08/03 08:13:14;;;;;;;1.30;1.00;;;27.20;99.90;;;;;;5044432;28;20915;-70
2022/08/03 08:15:43;;;;;;;1.27;1.17;;;27.20;99.90;;;;;;5015128;28;21591;-70
2022/08/03 08:18:09;;;;;;;1.00;1.00;;;27.30;99.90;;;;;;5033526;28;21014;-69
2022/08/03 08:20:37;;;;;;;1.30;1.20;;;27.40;99.90;;;;;;5050194;28;20200;-69
2022/08/03 08:23:06;;;;;;;1.00;1.00;;;27.40;99.90;;;;;;5051065;28;20240;-69
2022/08/03 08:25:34;;;;;;;1.10;1.10;;;27.60;99.90;;;;;;5048112;28;20815;-68
2022/08/03 08:28:02;;;;;;;1.10;1.10;;;27.70;99.90;;;;;;5048241;28;20228;-68
2022/08/03 08:30:30;;;;;;;1.65;0.93;;;27.80;99.90;;;;;;5047884;28;20208;-69
2022/08/03 08:32:59;;;;;;;1.15;1.15;;;27.90;99.90;;;;;;5044380;28;20262;-69
2022/08/03 08:35:26;;;;;;;1.10;1.10;;;27.90;99.90;;;;;;5046077;28;20216;-68
2022/08/03 08:37:53;;;;;;;1.00;1.00;;;28.10;99.90;;;;;;5043735;28;20944;-68
2022/08/03 08:40:22;;;;;;;1.20;1.20;;;28.30;99.90;;;;;;5044556;28;20287;-68
2022/08/03 08:42:49;;;;;;;1.45;1.35;;;28.10;99.90;;;;;;5037064;28;20367;-70
2022/08/03 08:45:18;;;;;;;1.00;1.00;;;28.20;99.90;;;;;;5045359;28;20222;-68
2022/08/03 08:47:46;;;;;;;1.10;1.10;;;28.30;99.90;;;;;;5044888;28;20240;-68
2022/08/03 08:50:17;;;;;;;2.40;1.42;;;28.50;99.90;;;;;;5041764;28;20295;-68
2022/08/03 08:52:47;;;;;;;1.35;1.30;;;28.60;99.90;;;;;;5042944;28;20207;-68
2022/08/03 08:55:22;;;;;;;1.10;1.10;;;28.70;99.90;;;;;;5030163;28;20228;-70
2022/08/03 08:57:52;;;;;;;1.15;1.05;;;28.80;99.90;;;;;;5046772;28;20243;-68
2022/08/03 09:00:19;;;;;;;1.38;1.02;;;29.00;99.90;;;;;;5044176;28;20237;-69
2022/08/03 09:02:47;;;;;;;1.15;1.15;;;29.00;99.90;;;;;;5042776;28;20732;-69
2022/08/03 09:05:18;;;;;;;0.93;0.93;;;29.00;99.90;;;;;;5044728;28;20258;-67
2022/08/03 09:07:47;;;;;;;1.00;1.00;;;29.20;99.90;;;;;;5048073;28;20298;-69
2022/08/03 09:10:18;;;;;;;1.00;1.00;;;29.20;99.90;;;;;;5047738;28;20204;-68
2022/08/03 09:12:46;;;;;;;1.08;1.08;;;29.10;99.90;;;;;;5045139;28;20203;-70
2022/08/03 09:15:19;;;;;;;1.02;1.02;;;29.20;99.90;;;;;;5048920;28;20283;-69
2022/08/03 09:17:46;;;;;;;1.17;1.17;;;29.40;99.90;;;;;;5048542;28;20226;-70
2022/08/03 09:20:14;;;;;;;1.67;1.20;;;29.50;99.90;;;;;;5066431;28;20222;-71
2022/08/03 09:22:56;;;;;;;1.25;1.20;;;29.50;99.90;;;;;;5058548;28;20287;-69
2022/08/03 09:25:34;;;;;;;1.30;1.20;;;29.60;99.90;;;;;;5052603;28;20323;-69
2022/08/03 09:28:07;;;;;;;1.30;1.20;;;29.70;99.90;;;;;;5051834;28;20232;-70
2022/08/03 09:30:34;;;;;;;1.10;1.10;;;29.80;99.90;;;;;;5052635;28;20211;-69
2022/08/03 09:33:02;;;;;;;1.00;1.00;;;29.90;99.90;;;;;;5049685;28;20207;-69
2022/08/03 09:35:30;;;;;;;1.45;1.35;;;30.00;99.90;;;;;;5037931;28;20228;-68
2022/08/03 09:38:16;;;;;;;1.05;0.98;;;30.00;99.90;;;;;;5053467;28;20288;-68
2022/08/03 09:40:45;;;;;;;1.10;1.10;;;30.00;99.90;;;;;;5039605;28;20230;-70
2022/08/03 09:43:12;;;;;;;0.98;0.98;;;29.90;99.90;;;;;;5050649;28;20235;-69
2022/08/03 09:45:40;;;;;;;1.13;1.05;;;30.10;99.90;;;;;;5057360;28;20283;-70
2022/08/03 09:48:26;;;;;;;1.35;1.25;;;30.20;99.90;;;;;;5059874;28;20303;-68
2022/08/03 09:50:56;;;;;;;1.95;1.05;;;30.20;99.90;;;;;;5053193;28;20223;-69
2022/08/03 09:53:24;;;;;;;1.00;1.00;;;30.30;99.90;;;;;;5055176;28;20204;-69
2022/08/03 09:55:55;;;;;;;1.00;1.00;;;30.50;99.90;;;;;;5056031;28;20242;-68
2022/08/03 09:58:23;;;;;;;1.27;1.20;;;30.80;99.90;;;;;;5056508;28;20220;-69
2022/08/03 10:00:58;;;;;;;0.98;0.98;;;31.00;99.90;;;;;;5051913;28;20200;-69
2022/08/03 10:03:27;;;;;;;2.72;1.10;;;31.20;99.90;;;;;;5048770;28;20279;-69
2022/08/03 10:05:56;;;;;;;1.15;1.08;;;31.10;99.90;;;;;;5049774;28;20199;-69
2022/08/03 10:08:23;;;;;;;0.95;0.95;;;30.90;99.90;;;;;;5051254;28;20256;-70
2022/08/03 10:10:53;;;;;;;1.00;1.00;;;31.00;99.90;;;;;;5050998;28;20226;-69
2022/08/03 10:13:22;;;;;;;1.00;1.00;;;30.90;99.90;;;;;;5051340;28;20208;-69
2022/08/03 10:15:48;;;;;;;1.35;1.05;;;31.20;99.90;;;;;;5050135;28;20300;-68
2022/08/03 10:18:15;;;;;;;0.90;0.90;;;31.30;99.90;;;;;;5051850;28;20245;-69
2022/08/03 10:20:46;;;;;;;0.90;0.90;;;31.20;99.90;;;;;;5050632;28;20666;-71
2022/08/03 10:23:16;;;;;;;1.10;1.00;;;31.40;99.90;;;;;;5050329;28;20204;-69
2022/08/03 10:25:46;;;;;;;1.40;1.20;;;31.50;99.90;;;;;;5049604;28;20203;-69
2022/08/03 10:28:16;;;;;;;0.98;0.98;;;31.50;99.90;;;;;;5050878;28;20230;-69
2022/08/03 10:30:47;;;;;;;1.17;1.00;;;31.40;99.90;;;;;;5049772;28;20640;-69
2022/08/03 10:33:18;;;;;;;0.95;0.95;;;31.60;99.90;;;;;;5049348;28;20211;-71
2022/08/03 10:35:48;;;;;;;0.85;0.85;;;31.80;99.90;;;;;;5048602;28;20212;-69
2022/08/03 10:38:21;;;;;;;1.13;1.08;;;31.90;99.90;;;;;;5050801;28;20252;-69
2022/08/03 10:40:53;;;;;;;1.00;1.00;;;31.80;99.90;;;;;;5045538;28;20266;-70
2022/08/03 10:43:22;;;;;;;0.80;0.80;;;31.80;99.90;;;;;;5047206;28;20258;-69
2022/08/03 10:45:50;;;;;;;0.95;0.95;;;31.90;99.90;;;;;;5048379;28;20203;-68
2022/08/03 10:48:18;;;;;;;1.00;1.00;;;31.80;99.90;;;;;;5050750;28;20270;-69
2022/08/03 10:50:46;;;;;;;0.70;0.70;;;32.00;99.90;;;;;;5048924;28;20204;-68
2022/08/03 10:53:12;;;;;;;0.82;0.82;;;32.30;99.90;;;;;;5047776;28;20291;-70
2022/08/03 10:58:50;;;;;;;0.80;0.80;;;32.70;99.90;;;;;;5049165;28;20361;-69
2022/08/03 11:01:17;;;;;;;0.75;0.75;;;32.90;99.90;;;;;;5048452;28;20227;-69
2022/08/03 11:04:15;;;;;;;1.10;0.90;;;33.10;99.90;;;;;;5049120;28;20206;-69
2022/08/03 11:06:43;;;;;;;0.93;0.93;;;33.30;99.90;;;;;;5049279;28;20204;-68
2022/08/03 11:09:18;;;;;;;0.80;0.80;;;33.20;99.90;;;;;;5050338;28;20318;-69
2022/08/03 11:11:48;;;;;;;2.33;1.17;;;33.20;99.90;;;;;;5051204;28;20709;-69
2022/08/03 11:14:19;;;;;;;0.90;0.90;;;33.30;99.90;;;;;;5046801;28;20208;-69
2022/08/03 11:16:48;;;;;;;0.90;0.90;;;33.30;99.90;;;;;;5056113;28;20242;-67
2022/08/03 11:19:18;;;;;;;0.90;0.90;;;33.50;99.90;;;;;;5045895;28;20243;-70
2022/08/03 11:21:58;;;;;;;1.85;0.90;;;33.60;99.90;;;;;;5044667;28;20652;-69
2022/08/03 11:24:57;;;;;;;0.88;0.88;;;33.70;99.90;;;;;;5045458;28;20204;-69
2022/08/03 11:27:26;;;;;;;0.90;0.90;;;34.00;99.90;;;;;;5048120;28;20219;-68
2022/08/03 11:29:58;;;;;;;0.80;0.80;;;33.80;99.90;;;;;;5047667;28;20218;-69
2022/08/03 11:33:00;;;;;;;2.53;0.88;;;33.80;99.90;;;;;;5048741;28;20214;-69
2022/08/03 11:35:29;;;;;;;1.65;0.90;;;33.80;99.90;;;;;;5046435;28;20220;-69
2022/08/03 11:38:10;;;;;;;0.90;0.90;;;33.80;99.90;;;;;;5050491;28;20219;-68
2022/08/03 11:40:39;;;;;;;0.75;0.75;;;33.80;99.90;;;;;;5050356;28;20204;-69
2022/08/03 11:43:09;;;;;;;0.80;0.80;;;33.80;99.90;;;;;;5051903;28;20212;-69
2022/08/03 11:45:37;;;;;;;0.60;0.60;;;33.50;99.90;;;;;;5054578;28;20192;-69
2022/08/03 11:48:15;;;;;;;0.80;0.80;;;33.50;99.90;;;;;;5050372;28;20239;-69
2022/08/03 11:50:44;;;;;;;0.70;0.70;;;33.80;99.90;;;;;;5047300;28;20215;-70
2022/08/03 11:53:15;;;;;;;0.68;0.68;;;34.00;99.90;;;;;;5046683;28;20208;-69
2022/08/03 11:55:43;;;;;;;0.80;0.80;;;34.30;99.90;;;;;;5047468;28;20231;-68
2022/08/03 11:58:17;;;;;;;0.75;0.75;;;34.50;99.90;;;;;;5046177;28;20231;-68
2022/08/03 12:00:44;;;;;;;0.60;0.60;;;34.70;99.90;;;;;;5046492;28;20210;-68
2022/08/03 12:03:14;;;;;;;0.80;0.80;;;34.80;99.90;;;;;;5034559;28;20211;-69
2022/08/03 12:05:47;;;;;;;0.70;0.70;;;34.70;99.90;;;;;;5045666;28;20212;-68
2022/08/03 12:08:16;;;;;;;1.38;1.00;;;34.80;99.90;;;;;;5045537;28;20279;-69
2022/08/03 12:10:48;;;;;;;0.70;0.70;;;34.80;99.90;;;;;;5047090;28;20208;-69
2022/08/03 12:13:18;;;;;;;0.63;0.63;;;34.70;99.90;;;;;;5039128;28;20204;-69
2022/08/03 12:15:51;;;;;;;0.70;0.70;;;34.70;99.90;;;;;;5037896;28;20223;-70
2022/08/03 12:18:20;;;;;;;0.77;0.77;;;34.80;99.90;;;;;;5047323;28;20260;-70
2022/08/03 12:20:48;;;;;;;0.75;0.73;;;34.90;99.90;;;;;;5045264;28;20203;-69
2022/08/03 12:23:16;;;;;;;1.25;1.08;;;34.90;99.90;;;;;;5044715;28;20207;-69
2022/08/03 12:25:44;;;;;;;1.10;1.00;;;34.90;99.90;;;;;;5048062;28;20196;-69
2022/08/03 12:28:18;;;;;;;0.85;0.77;;;34.90;99.90;;;;;;5051735;28;20338;-68
2022/08/03 12:30:48;;;;;;;0.70;0.70;;;34.90;99.90;;;;;;5058624;28;20259;-69
2022/08/03 12:33:18;;;;;;;0.70;0.70;;;35.00;99.90;;;;;;5034146;28;20290;-68
2022/08/03 12:35:46;;;;;;;4.03;1.00;;;35.20;99.90;;;;;;5043069;28;20215;-69
2022/08/03 12:38:13;;;;;;;1.02;1.00;;;35.20;99.90;;;;;;5048637;28;20255;-69
2022/08/03 12:40:42;;;;;;;0.55;0.55;;;35.30;99.70;;;;;;5045949;28;20202;-70
2022/08/03 12:43:13;;;;;;;0.65;0.65;;;35.40;99.90;;;;;;5049288;28;20265;-69
2022/08/03 12:45:40;;;;;;;0.65;0.65;;;35.50;99.60;;;;;;5047600;28;21041;-69
2022/08/03 12:48:11;;;;;;;0.70;0.70;;;35.50;99.20;;;;;;5047577;28;20232;-70
2022/08/03 12:50:40;;;;;;;0.93;0.93;;;35.40;98.80;;;;;;5045532;28;20223;-68
2022/08/03 12:53:09;;;;;;;0.70;0.70;;;35.30;98.20;;;;;;5041457;28;20299;-70
2022/08/03 12:55:37;;;;;;;0.82;0.82;;;35.20;98.80;;;;;;5042729;28;20216;-69
2022/08/03 12:58:09;;;;;;;0.80;0.80;;;35.30;98.40;;;;;;5045777;28;20227;-70
2022/08/03 13:00:36;;;;;;;0.98;0.90;;;35.30;98.70;;;;;;5035252;28;20222;-70
2022/08/03 13:03:06;;;;;;;0.70;0.70;;;35.50;98.00;;;;;;5046329;28;20753;-69
2022/08/03 13:05:43;;;;;;;0.80;0.80;;;35.50;98.10;;;;;;5048200;28;20305;-71
2022/08/03 13:08:19;;;;;;;0.90;0.77;;;35.50;97.50;;;;;;5044704;28;20219;-70